Time;durP1;ratioP1;P1;durP2;ratioP2;P2;SDS_P1;SDS_P2;PMS_P1;PMS_P2;Temp;Humidity;BMP_temperature;BMP_pressure;BME280_temperature;BME280_humidity;BME280_pressure;Samples;Min_cycle;Max_cycle;Signal;HPM_P1;HPM_P2
2022/04/07 00:01:31;;;;;;;2.05;1.10;;;19.20;99.90;;;;;;4214883;28;20248;-76
2022/04/07 00:03:34;;;;;;;2.78;1.30;;;19.20;99.90;;;;;;4215504;28;20261;-76
2022/04/07 00:05:38;;;;;;;2.47;1.27;;;19.20;99.90;;;;;;4217028;28;20268;-77
2022/04/07 00:07:40;;;;;;;1.80;1.23;;;19.20;99.90;;;;;;4216249;28;20206;-77
2022/04/07 00:09:42;;;;;;;2.35;1.33;;;19.20;99.90;;;;;;4221091;28;20278;-76
2022/04/07 00:11:45;;;;;;;1.95;1.02;;;19.20;99.90;;;;;;4226440;28;20210;-76
2022/04/07 00:13:47;;;;;;;2.13;1.20;;;19.20;99.90;;;;;;4219491;28;20202;-77
2022/04/07 00:15:52;;;;;;;1.70;1.20;;;19.20;99.90;;;;;;4226337;28;20214;-76
2022/04/07 00:17:55;;;;;;;2.22;1.38;;;19.20;99.90;;;;;;4220901;28;20214;-77
2022/04/07 00:19:57;;;;;;;1.75;1.17;;;19.10;99.90;;;;;;4217346;28;20276;-76
2022/04/07 00:22:01;;;;;;;1.77;1.33;;;19.20;99.90;;;;;;4213746;28;20628;-77
2022/04/07 00:24:04;;;;;;;2.13;1.30;;;19.10;99.90;;;;;;4227915;28;20270;-77
2022/04/07 00:26:06;;;;;;;1.77;1.15;;;19.10;99.90;;;;;;4219607;28;20205;-76
2022/04/07 00:28:08;;;;;;;2.35;1.40;;;19.10;99.90;;;;;;4227476;28;20226;-77
2022/04/07 00:30:13;;;;;;;2.42;1.27;;;19.10;99.90;;;;;;4227430;28;20658;-76
2022/04/07 00:32:15;;;;;;;2.35;1.30;;;19.10;99.90;;;;;;4215949;28;20263;-76
2022/04/07 00:34:17;;;;;;;3.20;1.40;;;19.10;99.90;;;;;;4227523;28;20230;-76
2022/04/07 00:36:20;;;;;;;1.42;1.20;;;19.10;99.90;;;;;;4221932;28;20651;-77
2022/04/07 00:38:23;;;;;;;3.85;1.30;;;19.10;99.90;;;;;;4216987;28;20253;-76
2022/04/07 00:40:26;;;;;;;3.03;1.20;;;19.10;99.90;;;;;;4227254;28;20235;-77
2022/04/07 00:42:28;;;;;;;1.80;1.23;;;19.10;99.90;;;;;;4220328;28;20211;-77
2022/04/07 00:44:31;;;;;;;1.55;1.00;;;19.10;99.90;;;;;;4221511;28;20202;-76
2022/04/07 00:46:33;;;;;;;1.83;1.10;;;19.10;99.90;;;;;;4225402;28;20206;-77
2022/04/07 00:48:36;;;;;;;2.50;1.33;;;19.10;99.90;;;;;;4224939;28;20233;-76
2022/04/07 00:50:38;;;;;;;2.17;1.10;;;19.10;99.90;;;;;;4224987;28;20206;-76
2022/04/07 00:52:42;;;;;;;1.80;1.08;;;19.10;99.90;;;;;;4220863;28;20207;-76
2022/04/07 00:54:46;;;;;;;2.35;1.30;;;19.10;99.90;;;;;;4218669;28;20658;-76
2022/04/07 00:56:49;;;;;;;3.42;1.15;;;19.10;99.90;;;;;;4216636;28;20711;-76
2022/04/07 00:58:53;;;;;;;1.50;1.10;;;19.10;99.90;;;;;;4217937;28;20240;-76
2022/04/07 01:00:55;;;;;;;1.90;1.35;;;19.10;99.90;;;;;;4217635;28;20213;-76
2022/04/07 01:02:57;;;;;;;1.98;1.00;;;19.10;99.90;;;;;;4210707;28;20218;-76
2022/04/07 01:05:00;;;;;;;2.65;1.30;;;19.00;99.90;;;;;;4218081;28;20285;-76
2022/04/07 01:07:02;;;;;;;1.73;1.42;;;19.10;99.90;;;;;;4215233;28;20241;-77
2022/04/07 01:09:05;;;;;;;1.80;1.15;;;19.10;99.90;;;;;;4225794;28;20226;-76
2022/04/07 01:11:09;;;;;;;1.70;1.10;;;19.00;99.90;;;;;;4219793;28;20256;-76
2022/04/07 01:13:12;;;;;;;2.10;1.20;;;19.10;99.90;;;;;;4219840;28;20214;-77
2022/04/07 01:15:15;;;;;;;1.55;0.90;;;19.10;99.90;;;;;;4222034;28;20279;-77
2022/04/07 01:17:19;;;;;;;1.67;1.33;;;19.00;99.90;;;;;;4217776;28;20263;-77
2022/04/07 01:19:22;;;;;;;1.67;1.00;;;19.00;99.90;;;;;;4215251;28;20211;-77
2022/04/07 01:21:25;;;;;;;1.25;0.95;;;19.00;99.90;;;;;;4222837;28;20311;-77
2022/04/07 01:23:30;;;;;;;2.03;1.20;;;19.00;99.90;;;;;;4223406;28;21637;-77
2022/04/07 01:25:34;;;;;;;3.65;1.10;;;19.00;99.90;;;;;;4221731;28;20688;-77
2022/04/07 01:27:37;;;;;;;2.50;1.63;;;19.00;99.90;;;;;;4220149;28;20259;-77
2022/04/07 01:29:39;;;;;;;2.33;1.30;;;19.00;99.90;;;;;;4224524;28;20634;-77
2022/04/07 01:31:42;;;;;;;1.90;0.95;;;19.00;99.90;;;;;;4217860;28;20253;-77
2022/04/07 01:33:45;;;;;;;3.05;1.10;;;19.00;99.90;;;;;;4214435;28;20675;-77
2022/04/07 01:35:48;;;;;;;2.17;1.38;;;19.00;99.90;;;;;;4211640;28;20256;-77
2022/04/07 01:37:53;;;;;;;1.73;1.20;;;19.00;99.90;;;;;;4209189;28;20252;-76
2022/04/07 01:39:55;;;;;;;2.00;1.10;;;19.00;99.90;;;;;;4210809;28;20226;-77
2022/04/07 01:41:59;;;;;;;2.65;1.30;;;19.00;99.90;;;;;;4211667;28;20218;-77
2022/04/07 01:44:03;;;;;;;1.73;1.13;;;19.00;99.90;;;;;;4211505;28;20260;-77
2022/04/07 01:46:05;;;;;;;2.10;1.25;;;19.00;99.90;;;;;;4207819;28;20219;-77
2022/04/07 01:48:09;;;;;;;1.70;1.08;;;19.00;99.90;;;;;;4205785;28;20212;-77
2022/04/07 01:50:13;;;;;;;2.50;1.30;;;19.00;99.90;;;;;;4207901;28;21702;-77
2022/04/07 01:52:15;;;;;;;2.08;1.13;;;18.90;99.90;;;;;;4210708;28;20267;-78
2022/04/07 01:54:18;;;;;;;2.90;1.20;;;19.00;99.90;;;;;;4210899;28;20738;-77
2022/04/07 01:56:21;;;;;;;2.05;1.40;;;19.00;99.90;;;;;;4210978;28;20255;-77
2022/04/07 01:58:25;;;;;;;1.60;0.93;;;18.90;99.90;;;;;;4208366;28;20214;-77
2022/04/07 02:00:28;;;;;;;1.23;1.00;;;19.00;99.90;;;;;;4210984;28;20198;-77
2022/04/07 02:02:32;;;;;;;1.42;0.90;;;18.90;99.90;;;;;;4210346;28;20260;-77
2022/04/07 02:04:34;;;;;;;2.05;1.30;;;18.90;99.90;;;;;;4210272;28;20222;-77
2022/04/07 02:06:36;;;;;;;1.67;1.02;;;18.90;99.90;;;;;;4210517;28;20214;-77
2022/04/07 02:08:39;;;;;;;3.17;1.27;;;18.90;99.90;;;;;;4210405;28;20315;-77
2022/04/07 02:10:41;;;;;;;1.25;1.00;;;18.90;99.90;;;;;;4206816;28;20215;-77
2022/04/07 02:12:44;;;;;;;1.70;1.23;;;18.90;99.90;;;;;;4210214;28;21781;-77
2022/04/07 02:14:48;;;;;;;1.35;1.02;;;18.90;99.90;;;;;;4210245;28;20226;-77
2022/04/07 02:16:50;;;;;;;2.10;1.17;;;18.90;99.90;;;;;;4210773;28;20227;-77
2022/04/07 02:18:52;;;;;;;1.35;0.95;;;18.90;99.90;;;;;;4210342;28;20218;-77
2022/04/07 02:20:55;;;;;;;1.85;1.10;;;18.90;99.90;;;;;;4211249;28;20224;-77
2022/04/07 02:22:57;;;;;;;2.30;1.20;;;18.90;99.90;;;;;;4210982;28;20218;-77
2022/04/07 02:24:59;;;;;;;1.60;1.10;;;18.90;99.90;;;;;;4209559;28;20650;-77
2022/04/07 02:27:02;;;;;;;2.28;1.40;;;18.90;99.90;;;;;;4210449;28;20267;-77
2022/04/07 02:29:05;;;;;;;1.95;1.15;;;18.90;99.90;;;;;;4210102;28;20362;-77
2022/04/07 02:31:09;;;;;;;2.35;1.05;;;18.90;99.90;;;;;;4210705;28;20238;-77
2022/04/07 02:33:12;;;;;;;2.05;1.35;;;18.90;99.90;;;;;;4206699;28;20230;-76
2022/04/07 02:35:14;;;;;;;2.25;1.33;;;18.90;99.90;;;;;;4226212;28;20206;-77
2022/04/07 02:37:16;;;;;;;1.90;1.13;;;18.90;99.90;;;;;;4227783;28;20213;-77
2022/04/07 02:39:19;;;;;;;2.88;1.17;;;18.90;99.90;;;;;;4226864;28;20278;-77
2022/04/07 02:41:21;;;;;;;1.92;1.13;;;18.80;99.90;;;;;;4211377;28;20606;-77
2022/04/07 02:43:24;;;;;;;2.03;1.20;;;18.90;99.90;;;;;;4226933;28;20246;-77
2022/04/07 02:45:26;;;;;;;2.25;1.00;;;18.90;99.90;;;;;;4225879;28;20254;-77
2022/04/07 02:47:33;;;;;;;2.40;1.20;;;18.80;99.90;;;;;;4225488;28;20206;-77
2022/04/07 02:49:39;;;;;;;1.65;1.10;;;18.80;99.90;;;;;;4226599;28;20692;-77
2022/04/07 02:51:41;;;;;;;1.80;0.98;;;18.80;99.90;;;;;;4226124;28;20263;-76
2022/04/07 02:53:43;;;;;;;2.00;1.15;;;18.90;99.90;;;;;;4226958;28;20259;-77
2022/04/07 02:55:46;;;;;;;2.28;1.17;;;18.80;99.90;;;;;;4226927;28;20259;-77
2022/04/07 02:57:48;;;;;;;2.92;1.15;;;18.90;99.90;;;;;;4225289;28;20259;-77
2022/04/07 02:59:50;;;;;;;1.52;1.00;;;18.80;99.90;;;;;;4226473;28;20258;-77
2022/04/07 03:01:53;;;;;;;1.98;1.15;;;18.80;99.90;;;;;;4224455;28;20218;-77
2022/04/07 03:03:57;;;;;;;1.50;0.90;;;18.80;99.90;;;;;;4227422;28;20205;-77
2022/04/07 03:05:59;;;;;;;3.45;1.10;;;18.80;99.90;;;;;;4224663;28;20609;-77
2022/04/07 03:08:02;;;;;;;2.17;1.00;;;18.80;99.90;;;;;;4227228;28;20263;-76
2022/04/07 03:10:04;;;;;;;2.53;1.10;;;18.80;99.90;;;;;;4226022;28;20238;-77
2022/04/07 03:12:08;;;;;;;2.22;0.95;;;18.80;99.90;;;;;;4227514;28;20218;-77
2022/04/07 03:14:10;;;;;;;2.63;1.02;;;18.80;99.90;;;;;;4227018;28;20692;-77
2022/04/07 03:16:12;;;;;;;2.55;1.13;;;18.80;99.90;;;;;;4216045;28;20218;-77
2022/04/07 03:18:15;;;;;;;1.95;1.02;;;18.80;99.90;;;;;;4224863;28;20210;-77
2022/04/07 03:20:18;;;;;;;1.60;1.02;;;18.80;99.90;;;;;;4220978;28;20219;-77
2022/04/07 03:22:21;;;;;;;1.77;1.02;;;18.80;99.90;;;;;;4225250;28;20274;-77
2022/04/07 03:24:24;;;;;;;1.35;0.90;;;18.80;99.90;;;;;;4227190;28;20654;-77
2022/04/07 03:26:26;;;;;;;2.45;1.15;;;18.80;99.90;;;;;;4230809;28;20206;-77
2022/04/07 03:28:29;;;;;;;1.70;0.95;;;18.80;99.90;;;;;;4228993;28;20210;-77
2022/04/07 03:30:31;;;;;;;2.08;1.00;;;18.80;99.90;;;;;;4228771;28;20234;-77
2022/04/07 03:32:33;;;;;;;1.63;1.10;;;18.80;99.90;;;;;;4226915;28;20206;-77
2022/04/07 03:34:36;;;;;;;1.88;1.00;;;18.80;99.90;;;;;;4228855;28;20278;-77
2022/04/07 03:36:40;;;;;;;2.33;0.93;;;18.80;99.90;;;;;;4230131;28;20214;-77
2022/04/07 03:38:42;;;;;;;2.55;1.10;;;18.80;99.90;;;;;;4229609;28;20221;-77
2022/04/07 03:40:44;;;;;;;2.40;0.95;;;18.80;99.90;;;;;;4229593;28;20206;-77
2022/04/07 03:42:47;;;;;;;2.45;1.17;;;18.80;99.90;;;;;;4229942;28;20242;-77
2022/04/07 03:44:49;;;;;;;2.65;1.20;;;18.80;99.90;;;;;;4230047;28;20214;-77
2022/04/07 03:46:51;;;;;;;2.17;1.15;;;18.80;99.90;;;;;;4228435;28;20218;-77
2022/04/07 03:48:54;;;;;;;1.98;1.20;;;18.80;99.90;;;;;;4229465;28;20206;-77
2022/04/07 03:50:56;;;;;;;1.65;1.13;;;18.80;99.90;;;;;;4228505;28;20227;-76
2022/04/07 03:53:00;;;;;;;2.45;0.95;;;18.80;99.90;;;;;;4230156;28;20613;-77
2022/04/07 03:55:02;;;;;;;2.20;1.20;;;18.70;99.90;;;;;;4229728;28;20322;-77
2022/04/07 03:57:05;;;;;;;1.58;0.90;;;18.70;99.90;;;;;;4229843;28;20641;-77
2022/04/07 03:59:07;;;;;;;2.05;1.08;;;18.70;99.90;;;;;;4224535;28;20263;-77
2022/04/07 04:01:10;;;;;;;3.10;1.10;;;18.70;99.90;;;;;;4229449;28;20232;-77
2022/04/07 04:03:13;;;;;;;1.92;0.93;;;18.70;99.90;;;;;;4228676;28;20661;-77
2022/04/07 04:05:15;;;;;;;1.85;1.05;;;18.70;99.90;;;;;;4229989;28;20213;-77
2022/04/07 04:07:17;;;;;;;1.52;0.98;;;18.70;99.90;;;;;;4227677;28;20214;-77
2022/04/07 04:09:21;;;;;;;2.38;0.90;;;18.70;99.90;;;;;;4228143;28;20214;-77
2022/04/07 04:11:23;;;;;;;1.40;0.90;;;18.70;99.90;;;;;;4228365;28;20230;-77
2022/04/07 04:13:28;;;;;;;1.27;0.73;;;18.70;99.90;;;;;;4220445;28;20209;-77
2022/04/07 04:15:30;;;;;;;2.60;1.35;;;18.70;99.90;;;;;;4227814;28;20205;-77
2022/04/07 04:17:33;;;;;;;2.00;0.85;;;18.70;99.90;;;;;;4228196;28;20210;-77
2022/04/07 04:19:35;;;;;;;2.50;1.00;;;18.70;99.90;;;;;;4221381;28;20557;-77
2022/04/07 04:21:38;;;;;;;2.08;1.00;;;18.70;99.90;;;;;;4226948;28;20259;-77
2022/04/07 04:23:41;;;;;;;2.03;0.93;;;18.70;99.90;;;;;;4220948;28;20264;-77
2022/04/07 04:25:46;;;;;;;2.92;1.10;;;18.70;99.90;;;;;;4225334;28;20217;-77
2022/04/07 04:27:48;;;;;;;1.80;1.00;;;18.70;99.90;;;;;;4225995;28;20274;-77
2022/04/07 04:29:51;;;;;;;2.15;0.95;;;18.70;99.90;;;;;;4223767;28;20258;-77
2022/04/07 04:31:53;;;;;;;1.42;0.90;;;18.70;99.90;;;;;;4222351;28;20275;-77
2022/04/07 04:33:55;;;;;;;1.92;0.90;;;18.70;99.90;;;;;;4226738;28;20242;-77
2022/04/07 04:35:59;;;;;;;1.70;0.98;;;18.70;99.90;;;;;;4226467;28;20293;-77
2022/04/07 04:38:01;;;;;;;1.98;0.80;;;18.70;99.90;;;;;;4223783;28;20270;-77
2022/04/07 04:40:05;;;;;;;1.75;1.10;;;18.70;99.90;;;;;;4220537;28;20563;-76
2022/04/07 04:42:09;;;;;;;1.90;0.90;;;18.70;99.90;;;;;;4225373;28;20198;-76
2022/04/07 04:44:11;;;;;;;1.95;1.20;;;18.70;99.90;;;;;;4225815;28;20263;-76
2022/04/07 04:46:14;;;;;;;1.90;1.10;;;18.70;99.90;;;;;;4224014;28;20260;-76
2022/04/07 04:48:16;;;;;;;1.38;0.80;;;18.70;99.90;;;;;;4226864;28;20262;-76
2022/04/07 04:50:18;;;;;;;2.25;0.90;;;18.70;99.90;;;;;;4226481;28;20566;-76
2022/04/07 04:52:21;;;;;;;1.70;0.88;;;18.60;99.90;;;;;;4223424;28;20275;-76
2022/04/07 04:54:23;;;;;;;1.42;1.02;;;18.70;99.90;;;;;;4227569;28;20210;-76
2022/04/07 04:56:27;;;;;;;2.00;1.02;;;18.70;99.90;;;;;;4228389;28;20235;-76
2022/04/07 04:58:30;;;;;;;1.98;1.00;;;18.70;99.90;;;;;;4226680;28;20213;-77
2022/04/07 05:00:33;;;;;;;2.15;1.00;;;18.70;99.90;;;;;;4227123;28;20608;-77
2022/04/07 05:02:37;;;;;;;1.95;0.98;;;18.60;99.90;;;;;;4225011;28;20263;-76
2022/04/07 05:04:39;;;;;;;1.30;1.00;;;18.60;99.90;;;;;;4224962;28;20244;-76
2022/04/07 05:06:42;;;;;;;1.58;0.95;;;18.70;99.90;;;;;;4225915;28;20210;-76
2022/04/07 05:08:44;;;;;;;2.08;1.00;;;18.70;99.90;;;;;;4224940;28;21475;-76
2022/04/07 05:10:46;;;;;;;1.55;0.77;;;18.70;99.90;;;;;;4225291;28;20237;-76
2022/04/07 05:12:49;;;;;;;2.08;0.80;;;18.70;99.90;;;;;;4226993;28;20288;-76
2022/04/07 05:14:52;;;;;;;2.00;0.80;;;18.60;99.90;;;;;;4226617;28;20262;-77
2022/04/07 05:16:55;;;;;;;2.30;1.00;;;18.70;99.90;;;;;;4227431;28;20222;-77
2022/04/07 05:18:57;;;;;;;2.20;1.00;;;18.70;99.90;;;;;;4228144;28;20222;-76
2022/04/07 05:20:59;;;;;;;2.38;1.00;;;18.70;99.90;;;;;;4228335;28;20218;-77
2022/04/07 05:23:01;;;;;;;1.23;0.70;;;18.70;99.90;;;;;;4228209;28;20214;-77
2022/04/07 05:25:04;;;;;;;1.63;0.80;;;18.70;99.90;;;;;;4227704;28;20274;-76
2022/04/07 05:27:06;;;;;;;1.80;1.00;;;18.70;99.90;;;;;;4227924;28;20255;-77
2022/04/07 05:29:09;;;;;;;2.00;1.00;;;18.60;99.90;;;;;;4227475;28;20214;-76
2022/04/07 05:31:12;;;;;;;3.88;1.00;;;18.70;99.90;;;;;;4226586;28;20229;-76
2022/04/07 05:33:17;;;;;;;1.23;0.90;;;18.70;99.90;;;;;;4225981;28;20712;-76
2022/04/07 05:35:19;;;;;;;2.40;0.85;;;18.70;99.90;;;;;;4227146;28;20441;-77
2022/04/07 05:37:21;;;;;;;1.85;1.00;;;18.70;99.90;;;;;;4227367;28;20287;-77
2022/04/07 05:39:24;;;;;;;2.67;1.20;;;18.60;99.90;;;;;;4228216;28;20262;-77
2022/04/07 05:41:26;;;;;;;1.45;0.93;;;18.70;99.90;;;;;;4228430;28;20708;-77
2022/04/07 05:43:28;;;;;;;2.88;0.90;;;18.70;99.90;;;;;;4228048;28;20259;-77
2022/04/07 05:45:31;;;;;;;1.35;0.75;;;18.70;99.90;;;;;;4228034;28;20210;-77
2022/04/07 05:47:40;;;;;;;1.63;0.90;;;18.70;99.90;;;;;;4223431;28;20969;-77
2022/04/07 05:49:42;;;;;;;2.58;1.05;;;18.70;99.90;;;;;;4227483;28;20210;-77
2022/04/07 05:51:47;;;;;;;1.23;0.82;;;18.70;99.90;;;;;;4226932;28;20234;-77
2022/04/07 05:53:49;;;;;;;2.65;1.02;;;18.70;99.90;;;;;;4227555;28;20263;-76
2022/04/07 05:55:51;;;;;;;1.75;0.98;;;18.70;99.90;;;;;;4226798;28;20274;-77
2022/04/07 05:57:54;;;;;;;1.98;0.98;;;18.70;99.90;;;;;;4228226;28;20271;-76
2022/04/07 06:00:04;;;;;;;2.22;1.05;;;18.70;99.90;;;;;;4227521;28;20229;-77
2022/04/07 06:02:07;;;;;;;3.03;1.02;;;18.70;99.90;;;;;;4225830;28;20214;-77
2022/04/07 06:04:11;;;;;;;3.35;1.00;;;18.70;99.90;;;;;;4227740;28;20214;-76
2022/04/07 06:06:13;;;;;;;1.60;0.85;;;18.70;99.90;;;;;;4224733;28;20259;-76
2022/04/07 06:08:16;;;;;;;1.38;0.85;;;18.70;99.90;;;;;;4227910;28;20218;-76
2022/04/07 06:10:18;;;;;;;1.73;1.05;;;18.70;99.90;;;;;;4226782;28;20275;-77
2022/04/07 06:12:20;;;;;;;1.48;0.70;;;18.70;99.90;;;;;;4227732;28;20728;-77
2022/04/07 06:14:22;;;;;;;2.50;1.05;;;18.70;99.90;;;;;;4227613;28;20210;-77
2022/04/07 06:16:25;;;;;;;2.30;0.90;;;18.80;99.90;;;;;;4226991;28;20267;-76
2022/04/07 06:18:28;;;;;;;1.58;1.00;;;18.70;99.90;;;;;;4227619;28;20649;-77
2022/04/07 06:20:31;;;;;;;1.98;0.90;;;18.70;99.90;;;;;;4226130;28;20670;-77
2022/04/07 06:22:34;;;;;;;3.20;1.00;;;18.80;99.90;;;;;;4224875;28;20361;-77
2022/04/07 06:24:36;;;;;;;1.35;0.80;;;18.70;99.90;;;;;;4226791;28;20321;-77
2022/04/07 06:26:38;;;;;;;2.55;0.98;;;18.70;99.90;;;;;;4224922;28;20217;-76
2022/04/07 06:28:42;;;;;;;1.75;1.10;;;18.80;99.90;;;;;;4227212;28;20221;-77
2022/04/07 06:30:44;;;;;;;3.15;1.00;;;18.80;99.90;;;;;;4226122;28;20650;-77
2022/04/07 06:32:49;;;;;;;1.67;0.90;;;18.80;99.90;;;;;;4226250;27;20282;-76
2022/04/07 06:34:51;;;;;;;1.25;0.88;;;18.80;99.90;;;;;;4210733;28;20214;-76
2022/04/07 06:36:55;;;;;;;2.63;0.98;;;18.80;99.90;;;;;;4209757;28;20287;-77
2022/04/07 06:38:57;;;;;;;2.85;0.90;;;18.80;99.90;;;;;;4209307;28;20219;-77
2022/04/07 06:41:00;;;;;;;1.88;0.95;;;18.80;99.90;;;;;;4210474;28;20269;-77
2022/04/07 06:43:02;;;;;;;2.20;1.10;;;18.80;99.90;;;;;;4210630;28;20264;-77
2022/04/07 06:45:05;;;;;;;1.58;0.80;;;18.80;99.90;;;;;;4210690;28;20276;-77
2022/04/07 06:47:08;;;;;;;2.83;1.02;;;18.80;99.90;;;;;;4205869;28;20260;-77
2022/04/07 06:49:10;;;;;;;2.05;1.35;;;18.80;99.90;;;;;;4201892;28;20959;-77
2022/04/07 06:51:14;;;;;;;2.50;1.17;;;18.80;99.90;;;;;;4207154;28;20219;-77
2022/04/07 06:53:17;;;;;;;2.05;1.10;;;18.70;99.90;;;;;;4204518;28;20238;-77
2022/04/07 06:55:20;;;;;;;2.22;0.82;;;18.80;99.90;;;;;;4203015;28;20214;-77
2022/04/07 06:57:22;;;;;;;2.47;1.10;;;18.80;99.90;;;;;;4207202;28;20202;-77
2022/04/07 06:59:25;;;;;;;2.33;1.00;;;18.80;99.90;;;;;;4209538;28;20214;-77
2022/04/07 07:01:27;;;;;;;1.52;0.85;;;18.80;99.90;;;;;;4201621;28;20232;-77
2022/04/07 07:03:29;;;;;;;1.98;0.90;;;18.80;99.90;;;;;;4210735;28;20210;-77
2022/04/07 07:05:33;;;;;;;1.58;0.98;;;18.80;99.90;;;;;;4206464;28;20271;-76
2022/04/07 07:07:36;;;;;;;1.83;1.00;;;18.80;99.90;;;;;;4208834;28;20260;-76
2022/04/07 07:09:39;;;;;;;2.72;1.02;;;18.80;99.90;;;;;;4210661;28;20222;-77
2022/04/07 07:11:42;;;;;;;5.97;1.15;;;18.80;99.90;;;;;;4209340;28;20355;-76
2022/04/07 07:13:44;;;;;;;1.55;0.90;;;18.80;99.90;;;;;;4207182;28;20604;-76
2022/04/07 07:15:46;;;;;;;1.90;0.90;;;18.90;99.90;;;;;;4210259;28;20215;-76
2022/04/07 07:17:51;;;;;;;2.63;1.08;;;18.90;99.90;;;;;;4210557;28;20886;-75
2022/04/07 07:19:53;;;;;;;2.50;1.40;;;18.90;99.90;;;;;;4210803;28;20275;-75
2022/04/07 07:21:56;;;;;;;2.63;0.90;;;18.80;99.90;;;;;;4209055;28;20280;-76
2022/04/07 07:23:59;;;;;;;1.98;0.93;;;18.90;99.90;;;;;;4209729;28;20268;-75
2022/04/07 07:26:02;;;;;;;1.70;1.17;;;18.90;99.90;;;;;;4200992;28;20210;-75
2022/04/07 07:28:06;;;;;;;3.85;1.10;;;18.90;99.90;;;;;;4203560;28;20276;-75
2022/04/07 07:30:10;;;;;;;2.13;1.15;;;19.00;99.90;;;;;;4209305;28;20720;-75
2022/04/07 07:32:12;;;;;;;3.40;1.25;;;19.00;99.90;;;;;;4202195;28;20285;-75
2022/04/07 07:34:15;;;;;;;1.98;0.93;;;19.00;99.90;;;;;;4225773;28;20692;-75
2022/04/07 07:36:17;;;;;;;1.63;0.80;;;19.00;99.90;;;;;;4237923;27;20266;-75
2022/04/07 07:38:21;;;;;;;2.17;1.23;;;19.00;99.90;;;;;;4238783;27;20271;-75
2022/04/07 07:40:26;;;;;;;3.38;1.00;;;19.10;99.90;;;;;;4244515;27;20258;-74
2022/04/07 07:42:29;;;;;;;2.05;0.80;;;19.10;99.90;;;;;;4233044;27;20217;-75
2022/04/07 07:44:32;;;;;;;2.42;1.10;;;19.10;99.90;;;;;;4241723;27;20262;-74
2022/04/07 07:46:34;;;;;;;1.85;0.90;;;19.20;99.90;;;;;;4241158;27;20266;-74
2022/04/07 07:48:37;;;;;;;4.05;0.82;;;19.30;99.90;;;;;;4242405;27;20217;-74
2022/04/07 07:50:41;;;;;;;2.15;1.13;;;19.40;99.90;;;;;;4242662;28;20209;-74
2022/04/07 07:52:44;;;;;;;5.00;1.00;;;19.60;99.90;;;;;;4243051;27;20285;-74
2022/04/07 07:54:46;;;;;;;4.07;0.98;;;19.60;99.90;;;;;;4243376;27;20213;-75
2022/04/07 07:56:48;;;;;;;1.90;1.00;;;19.70;99.90;;;;;;4241974;27;20279;-74
2022/04/07 07:58:52;;;;;;;2.55;0.95;;;19.80;99.90;;;;;;4243274;27;20213;-75
2022/04/07 08:00:56;;;;;;;2.75;1.10;;;19.80;99.90;;;;;;4243340;27;20258;-75
2022/04/07 08:02:58;;;;;;;2.63;1.10;;;19.90;99.90;;;;;;4242937;27;20619;-75
2022/04/07 08:05:00;;;;;;;2.30;0.90;;;19.80;99.90;;;;;;4236235;27;20610;-76
2022/04/07 08:07:04;;;;;;;2.72;1.23;;;19.80;99.90;;;;;;4236227;27;20288;-76
2022/04/07 08:09:06;;;;;;;2.95;1.00;;;20.00;99.90;;;;;;4237623;27;20262;-76
2022/04/07 08:11:09;;;;;;;1.85;0.82;;;20.00;99.90;;;;;;4235267;27;21039;-76
2022/04/07 08:13:11;;;;;;;1.60;1.02;;;20.10;99.90;;;;;;4247028;27;20305;-75
2022/04/07 08:15:15;;;;;;;1.52;1.05;;;20.20;99.90;;;;;;4247893;27;20205;-75
2022/04/07 08:17:17;;;;;;;1.50;1.00;;;20.20;99.90;;;;;;4243123;27;20217;-78
2022/04/07 08:19:23;;;;;;;1.98;0.73;;;20.20;99.90;;;;;;4242146;27;20239;-76
2022/04/07 08:21:25;;;;;;;3.08;1.15;;;20.20;99.90;;;;;;4245177;27;20197;-76
2022/04/07 08:23:28;;;;;;;2.17;0.85;;;20.30;99.90;;;;;;4245449;27;20721;-76
2022/04/07 08:25:30;;;;;;;2.03;1.15;;;20.30;99.90;;;;;;4241111;27;20257;-76
2022/04/07 08:27:32;;;;;;;8.15;1.08;;;20.40;99.90;;;;;;4240046;27;20225;-75
2022/04/07 08:29:35;;;;;;;6.93;1.30;;;20.40;99.90;;;;;;4244168;27;20213;-76
2022/04/07 08:31:38;;;;;;;7.90;1.40;;;20.40;99.90;;;;;;4241926;27;21034;-76
2022/04/07 08:33:41;;;;;;;3.35;1.13;;;20.50;99.90;;;;;;4240540;27;20266;-76
2022/04/07 08:35:43;;;;;;;8.98;1.38;;;20.40;99.90;;;;;;4236419;27;20261;-76
2022/04/07 08:37:45;;;;;;;4.05;0.90;;;20.40;99.90;;;;;;4238229;27;20205;-76
2022/04/07 08:39:49;;;;;;;4.97;1.10;;;20.60;99.90;;;;;;4243396;27;20286;-76
2022/04/07 08:41:53;;;;;;;2.00;0.90;;;20.60;99.90;;;;;;4238839;27;20309;-76
2022/04/07 08:43:55;;;;;;;5.72;1.25;;;20.70;99.90;;;;;;4238267;27;20269;-75
2022/04/07 08:45:58;;;;;;;2.45;0.90;;;20.70;99.90;;;;;;4244637;27;20209;-75
2022/04/07 08:48:04;;;;;;;4.53;1.17;;;20.70;99.90;;;;;;4237455;27;20212;-74
2022/04/07 08:50:08;;;;;;;7.25;0.93;;;20.60;99.90;;;;;;4241838;27;20208;-76
2022/04/07 08:52:11;;;;;;;1.45;0.80;;;20.50;99.90;;;;;;4239795;27;20266;-75
2022/04/07 08:54:13;;;;;;;2.60;1.02;;;20.60;99.90;;;;;;4243011;27;20241;-75
2022/04/07 08:56:15;;;;;;;3.60;1.42;;;20.70;99.90;;;;;;4240266;27;20213;-75
2022/04/07 08:58:18;;;;;;;2.45;0.90;;;20.70;99.90;;;;;;4242904;27;20669;-75
2022/04/07 09:00:20;;;;;;;5.72;1.20;;;20.80;99.90;;;;;;4243068;27;20213;-75
2022/04/07 09:02:23;;;;;;;3.38;0.93;;;20.90;99.90;;;;;;4241076;27;20221;-75
2022/04/07 09:04:29;;;;;;;3.30;1.08;;;20.90;99.90;;;;;;4240864;27;20588;-75
2022/04/07 09:06:34;;;;;;;2.55;1.20;;;20.90;99.90;;;;;;4244287;27;20269;-75
2022/04/07 09:08:39;;;;;;;1.33;1.00;;;20.90;99.90;;;;;;4237727;27;20262;-75
2022/04/07 09:10:41;;;;;;;3.03;1.35;;;21.00;99.90;;;;;;4242690;27;20209;-76
2022/04/07 09:12:44;;;;;;;3.00;1.17;;;21.00;99.90;;;;;;4238137;27;20620;-75
2022/04/07 09:14:55;;;;;;;3.60;0.80;;;21.00;99.90;;;;;;4232953;27;20221;-75
2022/04/07 09:16:57;;;;;;;5.88;0.98;;;21.00;99.90;;;;;;4246091;27;20209;-75
2022/04/07 09:19:01;;;;;;;3.45;0.90;;;21.10;99.90;;;;;;4241573;27;20266;-75
2022/04/07 09:21:05;;;;;;;9.15;1.38;;;21.00;99.90;;;;;;4242741;27;20261;-75
2022/04/07 09:23:12;;;;;;;14.85;2.03;;;21.00;99.90;;;;;;4240670;27;20201;-75
2022/04/07 09:25:15;;;;;;;8.45;1.42;;;21.00;99.90;;;;;;4243254;27;20280;-75
2022/04/07 09:27:18;;;;;;;3.10;1.02;;;21.00;99.90;;;;;;4239545;27;21023;-76
2022/04/07 09:29:20;;;;;;;5.97;1.55;;;21.00;99.90;;;;;;4240253;27;20259;-75
2022/04/07 09:31:23;;;;;;;11.13;1.27;;;21.10;99.90;;;;;;4242418;27;20282;-75
2022/04/07 09:33:27;;;;;;;6.55;1.13;;;21.20;99.90;;;;;;4242713;27;20238;-74
2022/04/07 09:35:29;;;;;;;5.85;1.15;;;21.20;99.90;;;;;;4239998;27;20626;-75
2022/04/07 09:37:34;;;;;;;3.88;1.40;;;21.20;99.90;;;;;;4240586;27;20219;-74
2022/04/07 09:39:39;;;;;;;2.90;1.20;;;21.20;99.90;;;;;;4240774;27;20262;-75
2022/04/07 09:41:42;;;;;;;7.35;1.42;;;21.20;99.90;;;;;;4244434;27;20209;-75
2022/04/07 09:43:46;;;;;;;4.20;1.05;;;21.20;99.90;;;;;;4238290;27;20217;-75
2022/04/07 09:45:48;;;;;;;3.58;0.90;;;21.30;99.90;;;;;;4242055;27;20721;-75
2022/04/07 09:47:51;;;;;;;2.33;1.10;;;21.30;99.90;;;;;;4240387;27;20214;-75
2022/04/07 09:49:53;;;;;;;2.60;0.90;;;21.30;99.90;;;;;;4239245;27;20221;-75
2022/04/07 09:51:59;;;;;;;2.72;1.38;;;21.30;99.90;;;;;;4237144;27;20217;-76
2022/04/07 09:54:04;;;;;;;4.68;1.00;;;21.30;99.90;;;;;;4236226;27;20233;-76
2022/04/07 09:56:07;;;;;;;2.08;0.95;;;21.20;99.90;;;;;;4238049;27;20242;-75
2022/04/07 09:58:12;;;;;;;2.03;1.00;;;21.30;99.90;;;;;;4238323;27;20246;-75
2022/04/07 10:00:16;;;;;;;2.92;0.95;;;21.30;99.90;;;;;;4236770;27;20618;-75
2022/04/07 10:02:19;;;;;;;2.80;1.10;;;21.30;99.90;;;;;;4242350;27;20613;-75
2022/04/07 10:04:22;;;;;;;2.03;0.82;;;21.40;99.90;;;;;;4241791;27;20261;-75
2022/04/07 10:06:26;;;;;;;3.92;0.85;;;21.40;99.90;;;;;;4242553;27;20209;-75
2022/04/07 10:08:28;;;;;;;4.43;1.10;;;21.40;99.90;;;;;;4239364;27;20206;-75
2022/04/07 10:10:32;;;;;;;2.65;1.00;;;21.40;99.90;;;;;;4242311;27;20261;-75
2022/04/07 10:12:34;;;;;;;1.85;0.90;;;21.40;99.90;;;;;;4238466;27;20218;-75
2022/04/07 10:14:38;;;;;;;4.57;1.05;;;21.40;99.90;;;;;;4243109;27;20273;-75
2022/04/07 10:16:40;;;;;;;1.70;0.90;;;21.40;99.90;;;;;;4244172;27;20609;-75
2022/04/07 10:18:48;;;;;;;1.83;1.10;;;21.40;99.90;;;;;;4239300;27;20500;-74
2022/04/07 10:20:57;;;;;;;2.70;1.25;;;21.50;99.90;;;;;;4236335;27;20213;-75
2022/04/07 10:23:08;;;;;;;1.80;0.93;;;21.50;99.90;;;;;;4240660;27;20254;-75
2022/04/07 10:25:11;;;;;;;3.20;1.10;;;21.50;99.90;;;;;;4239258;27;20281;-74
2022/04/07 10:27:20;;;;;;;2.60;0.85;;;21.40;99.90;;;;;;4238868;27;20209;-75
2022/04/07 10:29:24;;;;;;;3.00;1.10;;;21.40;99.90;;;;;;4238899;27;20253;-75
2022/04/07 10:31:30;;;;;;;1.95;0.90;;;21.50;99.90;;;;;;4240172;27;20213;-75
2022/04/07 10:33:33;;;;;;;2.88;1.10;;;21.50;99.90;;;;;;4240330;27;20277;-75
2022/04/07 10:35:37;;;;;;;4.50;1.27;;;21.50;99.90;;;;;;4241205;27;20213;-75
2022/04/07 10:37:46;;;;;;;2.80;0.85;;;21.50;99.90;;;;;;4241268;27;20213;-75
2022/04/07 10:39:51;;;;;;;4.25;1.17;;;21.50;99.90;;;;;;4245017;27;20216;-76
2022/04/07 10:41:53;;;;;;;2.75;1.00;;;21.50;99.90;;;;;;4242542;27;20209;-76